Pagina principală
METAR-TAF:

METAR-TAF

Aeroporturi :

Searle Field

Ogallala, Nebraska, Statele Unite ale Americii

Latitudine: 41-07-11N, longitudine: 101-46-08W, elevație: 999 m

Observații meteo curente

Raportul a fost făcut în urmă cu 23 de minute, la 16:15 UTC
Vânt 5 kt de la Nord-est
Temperatură 2°C
Umiditate 51%
Presiune 1031 hPa
Vizibilitate: 16.1 km
Total acoperit la o înălțime de 3100 picior

METAR: KOGA 201615Z AUTO 04005KT 10SM OVC031 02/M07 A3044 RMK AO2 T00201066 TSNO

Ora: 10:38 (16:38 UTC)


TAF: lipsă

Observații și prognoze meteo pentru peste 4.000 de aeroporturi (rapoarte METAR și TAF).

Stațiile disponibile sunt reprezentate pe hartă prin puncte galbene și roșii.

Țineți indicatorul mouse-ului pe punctul dorit pentru a vedea denumirea stației.

Apoi, faceți clic pentru a vedea observațiile și prognozele meteorologice.

Pentru a schimba harta: Pentru mărire, faceți clic pe butoanele verzi cu cruce neagră; pentru micșorare, pe butonul verde cu o liniuță; pentru hărți învecinate, pe săgețile verzi.


METAR-TAF: